createdAt,value
2019-05-11T00:02:30.447Z,19.7
2019-05-11T00:19:17.195Z,19.7
2019-05-11T00:36:03.965Z,19.7
2019-05-11T00:52:50.552Z,19.7
2019-05-11T01:09:37.156Z,19.7
2019-05-11T01:26:23.617Z,19.4
2019-05-11T01:43:10.024Z,19.4
2019-05-11T01:59:56.541Z,19.4
2019-05-11T02:16:42.935Z,19.4
2019-05-11T02:33:29.377Z,19.4
2019-05-11T02:50:15.752Z,19.4
2019-05-11T03:07:01.992Z,19.4
2019-05-11T03:23:48.327Z,19.4
2019-05-11T03:40:34.539Z,19.0
2019-05-11T03:57:20.707Z,19.0
2019-05-11T04:14:06.797Z,19.0
2019-05-11T04:30:52.875Z,19.0
2019-05-11T04:47:39.030Z,19.0
2019-05-11T05:04:25.030Z,19.0
2019-05-11T05:21:11.031Z,19.0
2019-05-11T05:37:57.135Z,19.0
2019-05-11T05:54:43.273Z,19.4
2019-05-11T06:11:29.531Z,19.4
2019-05-11T06:28:16.192Z,19.4
2019-05-11T06:45:03.146Z,19.7
2019-05-11T07:01:49.629Z,19.7
2019-05-11T07:18:36.274Z,19.7
2019-05-11T07:35:23.180Z,20.0
2019-05-11T07:52:10.101Z,20.0
2019-05-11T08:08:58.785Z,20.0
2019-05-11T08:25:44.687Z,20.3
2019-05-11T08:42:32.109Z,20.3
2019-05-11T08:59:19.480Z,20.3
2019-05-11T09:16:07.876Z,20.3
2019-05-11T09:32:54.413Z,20.3
2019-05-11T09:49:47.648Z,20.3
2019-05-11T10:06:29.679Z,20.3
2019-05-11T10:23:18.541Z,20.3
2019-05-11T10:40:04.850Z,20.3
2019-05-11T10:56:52.451Z,20.6
2019-05-11T11:13:40.149Z,20.6
2019-05-11T11:30:28.563Z,20.6
2019-05-11T11:47:20.767Z,20.3
2019-05-11T12:04:03.311Z,20.3
2019-05-11T12:20:50.897Z,20.6
2019-05-11T12:37:38.730Z,20.6
2019-05-11T12:54:28.013Z,21.0
2019-05-11T13:11:15.072Z,21.0
2019-05-11T13:28:03.255Z,21.0
2019-05-11T13:44:51.674Z,21.0
2019-05-11T14:01:40.010Z,21.0
2019-05-11T14:18:28.414Z,21.0
2019-05-11T14:35:18.722Z,21.0
2019-05-11T14:52:04.722Z,21.0
2019-05-11T15:08:52.932Z,21.0
2019-05-11T15:25:41.112Z,21.0
2019-05-11T15:42:29.453Z,21.0
2019-05-11T15:59:17.670Z,21.0
2019-05-11T16:16:06.023Z,21.0
2019-05-11T16:32:54.269Z,21.0
2019-05-11T16:49:42.525Z,21.3
2019-05-11T17:06:31.813Z,21.0
2019-05-11T17:23:19.295Z,21.0
2019-05-11T17:40:09.054Z,21.0
2019-05-11T17:56:57.824Z,21.0
2019-05-11T18:13:44.212Z,20.6
2019-05-11T18:30:32.946Z,20.6
2019-05-11T18:47:20.354Z,20.6
2019-05-11T19:04:08.645Z,20.3
2019-05-11T19:20:58.552Z,20.3
2019-05-11T19:37:49.303Z,20.3
2019-05-11T19:54:31.939Z,20.3
2019-05-11T20:11:19.197Z,20.0
2019-05-11T20:28:06.944Z,20.0
2019-05-11T20:44:54.592Z,20.0
2019-05-11T21:01:41.662Z,20.0
2019-05-11T21:18:28.835Z,20.0
2019-05-11T21:35:15.250Z,20.0
2019-05-11T21:52:04.405Z,20.0
2019-05-11T22:08:50.899Z,19.7
2019-05-11T22:25:35.396Z,19.7
2019-05-11T22:42:22.194Z,19.7
2019-05-11T22:59:08.583Z,19.7
2019-05-11T23:15:54.958Z,19.4
2019-05-11T23:32:41.625Z,19.4
2019-05-11T23:49:27.759Z,19.4
